ENBR/BGO METAR and TAF weather

Enter ICAO airport designator
Station Type Date Time Source
ENBR METAR 2020/01/28 04:50 UTC NOAA

ENBR 280450Z 13010KT 9999 FEW020 03/01 Q0989 RMK WIND 1200FT 14018KT


Station Type Date Time Source
ENBR Decoded METAR 2020/01/28 04:50 UTC NOAA

Bergen / Flesland, Norway (ENBR) 60-17N 005-14E 50M
Jan 27, 2020 - 11:50 PM EST / 2020.01.28 0450 UTC
Wind: from the SE (130 degrees) at 12 MPH (10 KT):0
Visibility: greater than 7 mile(s):0
Sky conditions: mostly clear
Temperature: 37 F (3 C)
Dew Point: 33 F (1 C)
Relative Humidity: 86%
Pressure (altimeter): 29.21 in. Hg (0989 hPa)
ob: ENBR 280450Z 13010KT 9999 FEW020 03/01 Q0989 RMK WIND 1200FT 14018KT
cycle: 5

Station Type Date Time Source
ENBR TAF 2020/01/27 18:57 UTC NOAA

TAF ENBR 271700Z 2718/2818 16012KT 9999 -SHRA FEW015TCU BKN018
TEMPO 2718/2803 17018G28KT 4000 SHRA BKN014CB
BECMG 2803/2805 10010KT
BECMG 2809/2811 01010KT

Example: see airport list